»·PEaware :: N409LP L88-KSBP

N409LP :: L88-KSBP

FLIGHT INFORMATION

Flight Status: Arrived
Operator: Privately registered:
United States
More flights under this callsign
Pilot: Mike T. (22492)
Aircraft: CESSNA 172 SKYHAWK
(C172)
More flights by this aircraft type
Origin: L88 New Cuyama
United States
Destination: KSBP San Luis Co Regl
United States
More flights between these airports :: More routes between these airports
Route: DIRECT
File this flight plan on PilotEdge
Remarks: CAT II
Altitude:
(Current/Filed)
8,500ft
Speed:
(Current/Filed)
100kts
Departed: 25-Jan-19 03:42 PM
Arrived: 25-Jan-19 04:19 PM
Distance/Time
Traveled:
50nm/0:37
Distance/Time
To Go:
Arrived

Flight Plot

Page will automatically refresh every two minutes.


Map Options




Map Legend


Flown Route
Filed Route
Departure Airport
Arrival Airport
Navaid (VOR, NDB)
Fix

Horizontal Profiles

Position Reports

Time Latitude Longitude Heading Altitude Ground
Speed
25-Jan-19 15:31 34.942901 -119.690535 174 2156ft 0kts
25-Jan-19 15:32 34.942901 -119.690535 174 2156ft 0kts
25-Jan-19 15:33 34.942901 -119.690535 174 2156ft 0kts
25-Jan-19 15:34 34.942879 -119.690904 254 2155ft 4kts
25-Jan-19 15:35 34.940685 -119.687386 116 2168ft 19kts
25-Jan-19 15:36 34.938892 -119.682929 116 2188ft 11kts
25-Jan-19 15:37 34.937589 -119.679832 273 2201ft 2kts
25-Jan-19 15:38 34.937621 -119.679900 296 2200ft 0kts
25-Jan-19 15:39 34.937621 -119.679900 296 2200ft 0kts
25-Jan-19 15:40 34.937621 -119.679901 295 2200ft 0kts
25-Jan-19 15:41 34.938915 -119.683105 297 2193ft 65kts
25-Jan-19 15:42 34.947772 -119.705643 292 2983ft 73kts
25-Jan-19 15:43 34.957513 -119.727444 294 3879ft 72kts
25-Jan-19 15:44 34.966561 -119.749467 292 4720ft 71kts
25-Jan-19 15:45 34.973804 -119.771975 282 5519ft 70kts
25-Jan-19 15:46 34.979379 -119.794803 285 6282ft 69kts
25-Jan-19 15:47 34.984953 -119.817266 287 7002ft 68kts
25-Jan-19 15:48 34.990388 -119.839667 289 7683ft 68kts
25-Jan-19 15:49 34.996037 -119.861868 292 8321ft 68kts
25-Jan-19 15:50 35.003294 -119.888391 292 8639ft 87kts
25-Jan-19 15:51 35.011061 -119.916425 291 8592ft 87kts
25-Jan-19 15:52 35.019319 -119.944138 294 8501ft 85kts
25-Jan-19 15:53 35.028602 -119.971344 293 8411ft 85kts
25-Jan-19 15:54 35.037789 -119.998290 297 8371ft 85kts
25-Jan-19 15:55 35.048135 -120.024734 296 8336ft 85kts
25-Jan-19 15:56 35.057280 -120.052030 295 8306ft 86kts
25-Jan-19 15:57 35.066335 -120.079525 297 8333ft 86kts
25-Jan-19 15:58 35.076852 -120.106335 301 8361ft 86kts
25-Jan-19 15:59 35.085646 -120.134548 295 8217ft 90kts
25-Jan-19 16:00 35.095125 -120.162625 297 7995ft 87kts
25-Jan-19 16:01 35.101894 -120.191953 289 8219ft 89kts
25-Jan-19 16:02 35.107378 -120.221326 294 8435ft 88kts
25-Jan-19 16:03 35.115259 -120.250197 298 8500ft 86kts
25-Jan-19 16:04 35.124305 -120.278567 301 8028ft 89kts
25-Jan-19 16:05 35.133846 -120.306663 297 7419ft 88kts
25-Jan-19 16:06 35.143495 -120.334546 297 6790ft 88kts
25-Jan-19 16:07 35.153949 -120.364127 301 6194ft 93kts
25-Jan-19 16:08 35.164388 -120.393641 300 5757ft 93kts
25-Jan-19 16:09 35.174101 -120.423471 301 5384ft 92kts
25-Jan-19 16:10 35.185048 -120.452030 299 4939ft 94kts
25-Jan-19 16:11 35.192311 -120.482838 291 4470ft 92kts
25-Jan-19 16:12 35.197942 -120.514157 285 3923ft 93kts
25-Jan-19 16:13 35.200235 -120.545597 278 3132ft 90kts
25-Jan-19 16:14 35.204964 -120.575490 292 2187ft 87kts
25-Jan-19 16:15 35.214858 -120.601234 303 1349ft 71kts
25-Jan-19 16:16 35.224693 -120.618760 307 640ft 56kts
25-Jan-19 16:17 35.232956 -120.633351 308 246ft 50kts
25-Jan-19 16:18 35.235667 -120.636172 309 216ft 9kts
25-Jan-19 16:19 35.237669 -120.636873 79 216ft 4kts
25-Jan-19 16:20 35.237482 -120.636428 169 216ft 0kts
25-Jan-19 16:21 35.237482 -120.636428 169 216ft 0kts
25-Jan-19 16:22 35.237482 -120.636428 169 216ft 0kts
25-Jan-19 16:23 35.237482 -120.636428 169 216ft 0kts
25-Jan-19 16:24 35.237482 -120.636428 169 216ft 0kts
25-Jan-19 16:25 35.237482 -120.636429 169 216ft 0kts
25-Jan-19 16:26 35.237482 -120.636429 169 216ft 0kts
25-Jan-19 16:27 35.237482 -120.636429 169 216ft 0kts
25-Jan-19 16:28 35.237482 -120.636429 169 216ft 0kts
25-Jan-19 16:29 35.237482 -120.636429 169 216ft 0kts
25-Jan-19 16:30 35.237482 -120.636429 169 216ft 0kts
25-Jan-19 16:31 35.237482 -120.636429 169 216ft 0kts
25-Jan-19 16:32 35.237482 -120.636429 169 216ft 0kts
25-Jan-19 16:33 35.237482 -120.636429 169 216ft 0kts

Navigation Log

Ident Type
Flight plan parsing failed, navigation log unavailable